sensor_id;sensor_type;location;lat;lon;timestamp;P1;durP1;ratioP1;P2;durP2;ratioP2
26277;SDS011;14000;52.056;8.510;2023-04-06T00:01:06;21.73;;;10.53;;
26277;SDS011;14000;52.056;8.510;2023-04-06T00:03:32;19.80;;;10.77;;
26277;SDS011;14000;52.056;8.510;2023-04-06T00:05:57;20.30;;;10.50;;
26277;SDS011;14000;52.056;8.510;2023-04-06T00:08:23;20.47;;;10.63;;
26277;SDS011;14000;52.056;8.510;2023-04-06T00:10:49;23.00;;;9.90;;
26277;SDS011;14000;52.056;8.510;2023-04-06T00:13:15;18.53;;;10.03;;
26277;SDS011;14000;52.056;8.510;2023-04-06T00:15:40;22.17;;;9.73;;
26277;SDS011;14000;52.056;8.510;2023-04-06T00:18:06;18.67;;;10.07;;
26277;SDS011;14000;52.056;8.510;2023-04-06T00:20:32;19.90;;;10.93;;
26277;SDS011;14000;52.056;8.510;2023-04-06T00:22:57;22.40;;;10.90;;
26277;SDS011;14000;52.056;8.510;2023-04-06T00:25:23;19.57;;;10.47;;
26277;SDS011;14000;52.056;8.510;2023-04-06T00:27:49;21.93;;;10.63;;
26277;SDS011;14000;52.056;8.510;2023-04-06T00:30:14;22.73;;;11.83;;
26277;SDS011;14000;52.056;8.510;2023-04-06T00:32:40;20.30;;;10.53;;
26277;SDS011;14000;52.056;8.510;2023-04-06T00:35:06;22.80;;;10.97;;
26277;SDS011;14000;52.056;8.510;2023-04-06T00:37:32;18.80;;;9.50;;
26277;SDS011;14000;52.056;8.510;2023-04-06T00:39:57;20.53;;;10.47;;
26277;SDS011;14000;52.056;8.510;2023-04-06T00:42:23;18.73;;;9.27;;
26277;SDS011;14000;52.056;8.510;2023-04-06T00:44:56;16.50;;;8.70;;
26277;SDS011;14000;52.056;8.510;2023-04-06T00:47:26;18.37;;;9.93;;
26277;SDS011;14000;52.056;8.510;2023-04-06T00:49:52;19.10;;;10.30;;
26277;SDS011;14000;52.056;8.510;2023-04-06T00:52:19;20.97;;;10.67;;
26277;SDS011;14000;52.056;8.510;2023-04-06T00:54:45;21.40;;;10.97;;
26277;SDS011;14000;52.056;8.510;2023-04-06T00:57:11;20.10;;;11.00;;
26277;SDS011;14000;52.056;8.510;2023-04-06T00:59:38;22.20;;;10.60;;
26277;SDS011;14000;52.056;8.510;2023-04-06T01:02:04;18.63;;;9.90;;
26277;SDS011;14000;52.056;8.510;2023-04-06T01:04:29;17.83;;;10.03;;
26277;SDS011;14000;52.056;8.510;2023-04-06T01:06:56;18.20;;;9.70;;
26277;SDS011;14000;52.056;8.510;2023-04-06T01:09:22;20.27;;;10.30;;
26277;SDS011;14000;52.056;8.510;2023-04-06T01:11:47;18.43;;;9.67;;
26277;SDS011;14000;52.056;8.510;2023-04-06T01:14:14;19.40;;;10.17;;
26277;SDS011;14000;52.056;8.510;2023-04-06T01:16:40;21.07;;;10.00;;
26277;SDS011;14000;52.056;8.510;2023-04-06T01:19:10;18.47;;;10.30;;
26277;SDS011;14000;52.056;8.510;2023-04-06T01:21:36;19.80;;;10.47;;
26277;SDS011;14000;52.056;8.510;2023-04-06T01:24:03;20.07;;;10.53;;
26277;SDS011;14000;52.056;8.510;2023-04-06T01:26:33;24.57;;;10.83;;
26277;SDS011;14000;52.056;8.510;2023-04-06T01:28:59;19.40;;;10.77;;
26277;SDS011;14000;52.056;8.510;2023-04-06T01:31:25;22.07;;;11.27;;
26277;SDS011;14000;52.056;8.510;2023-04-06T01:33:51;22.10;;;10.93;;
26277;SDS011;14000;52.056;8.510;2023-04-06T01:36:17;19.00;;;10.50;;
26277;SDS011;14000;52.056;8.510;2023-04-06T01:38:43;17.80;;;9.63;;
26277;SDS011;14000;52.056;8.510;2023-04-06T01:41:09;17.83;;;9.33;;
26277;SDS011;14000;52.056;8.510;2023-04-06T01:43:35;18.30;;;9.43;;
26277;SDS011;14000;52.056;8.510;2023-04-06T01:46:01;19.00;;;9.43;;
26277;SDS011;14000;52.056;8.510;2023-04-06T01:48:27;18.70;;;9.57;;
26277;SDS011;14000;52.056;8.510;2023-04-06T01:50:53;19.70;;;10.00;;
26277;SDS011;14000;52.056;8.510;2023-04-06T01:53:19;20.80;;;11.27;;
26277;SDS011;14000;52.056;8.510;2023-04-06T01:55:45;22.93;;;11.97;;
26277;SDS011;14000;52.056;8.510;2023-04-06T01:58:10;19.97;;;10.20;;
26277;SDS011;14000;52.056;8.510;2023-04-06T02:00:36;17.67;;;9.77;;
26277;SDS011;14000;52.056;8.510;2023-04-06T02:03:02;21.07;;;10.00;;
26277;SDS011;14000;52.056;8.510;2023-04-06T02:05:28;21.20;;;10.40;;
26277;SDS011;14000;52.056;8.510;2023-04-06T02:07:55;20.20;;;9.90;;
26277;SDS011;14000;52.056;8.510;2023-04-06T02:10:21;21.10;;;9.77;;
26277;SDS011;14000;52.056;8.510;2023-04-06T02:12:48;19.23;;;10.13;;
26277;SDS011;14000;52.056;8.510;2023-04-06T02:15:14;20.63;;;9.17;;
26277;SDS011;14000;52.056;8.510;2023-04-06T02:17:40;20.20;;;9.73;;
26277;SDS011;14000;52.056;8.510;2023-04-06T02:20:06;20.20;;;10.70;;
26277;SDS011;14000;52.056;8.510;2023-04-06T02:22:32;17.97;;;9.10;;
26277;SDS011;14000;52.056;8.510;2023-04-06T02:24:58;18.23;;;9.47;;
26277;SDS011;14000;52.056;8.510;2023-04-06T02:27:24;18.77;;;9.43;;
26277;SDS011;14000;52.056;8.510;2023-04-06T02:29:49;18.63;;;10.50;;
26277;SDS011;14000;52.056;8.510;2023-04-06T02:32:15;21.90;;;11.60;;
26277;SDS011;14000;52.056;8.510;2023-04-06T02:34:41;21.17;;;11.67;;
26277;SDS011;14000;52.056;8.510;2023-04-06T02:37:06;22.20;;;12.00;;
26277;SDS011;14000;52.056;8.510;2023-04-06T02:39:32;21.83;;;11.73;;
26277;SDS011;14000;52.056;8.510;2023-04-06T02:41:57;21.20;;;10.03;;
26277;SDS011;14000;52.056;8.510;2023-04-06T02:44:23;26.17;;;10.77;;
26277;SDS011;14000;52.056;8.510;2023-04-06T02:46:49;19.27;;;10.03;;
26277;SDS011;14000;52.056;8.510;2023-04-06T02:49:15;20.50;;;10.40;;
26277;SDS011;14000;52.056;8.510;2023-04-06T02:51:41;23.37;;;10.80;;
26277;SDS011;14000;52.056;8.510;2023-04-06T02:54:06;20.40;;;10.87;;
26277;SDS011;14000;52.056;8.510;2023-04-06T02:56:32;19.83;;;11.07;;
26277;SDS011;14000;52.056;8.510;2023-04-06T02:58:58;20.77;;;10.77;;
26277;SDS011;14000;52.056;8.510;2023-04-06T03:01:23;19.60;;;10.10;;
26277;SDS011;14000;52.056;8.510;2023-04-06T03:03:49;20.03;;;10.43;;
26277;SDS011;14000;52.056;8.510;2023-04-06T03:06:15;18.07;;;8.43;;
26277;SDS011;14000;52.056;8.510;2023-04-06T03:08:40;18.77;;;9.57;;
26277;SDS011;14000;52.056;8.510;2023-04-06T03:11:06;17.73;;;10.17;;
26277;SDS011;14000;52.056;8.510;2023-04-06T03:13:32;16.17;;;8.67;;
26277;SDS011;14000;52.056;8.510;2023-04-06T03:15:57;20.77;;;9.47;;
26277;SDS011;14000;52.056;8.510;2023-04-06T03:18:23;23.67;;;11.87;;
26277;SDS011;14000;52.056;8.510;2023-04-06T03:20:50;19.17;;;9.97;;
26277;SDS011;14000;52.056;8.510;2023-04-06T03:23:18;18.30;;;9.83;;
26277;SDS011;14000;52.056;8.510;2023-04-06T03:25:45;20.90;;;11.50;;
26277;SDS011;14000;52.056;8.510;2023-04-06T03:28:11;17.77;;;9.70;;
26277;SDS011;14000;52.056;8.510;2023-04-06T03:30:37;22.40;;;11.37;;
26277;SDS011;14000;52.056;8.510;2023-04-06T03:33:02;19.10;;;10.87;;
26277;SDS011;14000;52.056;8.510;2023-04-06T03:35:28;20.00;;;11.63;;
26277;SDS011;14000;52.056;8.510;2023-04-06T03:37:54;19.70;;;10.40;;
26277;SDS011;14000;52.056;8.510;2023-04-06T03:40:20;23.03;;;11.20;;
26277;SDS011;14000;52.056;8.510;2023-04-06T03:42:46;24.37;;;11.73;;
26277;SDS011;14000;52.056;8.510;2023-04-06T03:45:11;20.33;;;11.40;;
26277;SDS011;14000;52.056;8.510;2023-04-06T03:47:38;21.20;;;11.27;;
26277;SDS011;14000;52.056;8.510;2023-04-06T03:50:04;23.27;;;11.43;;
26277;SDS011;14000;52.056;8.510;2023-04-06T03:52:31;21.13;;;11.00;;
26277;SDS011;14000;52.056;8.510;2023-04-06T03:54:56;23.93;;;12.20;;
26277;SDS011;14000;52.056;8.510;2023-04-06T03:57:22;22.40;;;12.10;;
26277;SDS011;14000;52.056;8.510;2023-04-06T03:59:47;20.10;;;9.83;;
26277;SDS011;14000;52.056;8.510;2023-04-06T04:02:13;23.90;;;11.33;;
26277;SDS011;14000;52.056;8.510;2023-04-06T04:04:39;24.03;;;10.93;;
26277;SDS011;14000;52.056;8.510;2023-04-06T04:07:05;21.90;;;11.03;;
26277;SDS011;14000;52.056;8.510;2023-04-06T04:09:30;22.30;;;11.13;;
26277;SDS011;14000;52.056;8.510;2023-04-06T04:11:56;19.33;;;10.10;;
26277;SDS011;14000;52.056;8.510;2023-04-06T04:14:22;23.93;;;11.90;;
26277;SDS011;14000;52.056;8.510;2023-04-06T04:16:47;19.27;;;10.03;;
26277;SDS011;14000;52.056;8.510;2023-04-06T04:19:13;23.13;;;11.03;;
26277;SDS011;14000;52.056;8.510;2023-04-06T04:21:42;19.50;;;10.73;;
26277;SDS011;14000;52.056;8.510;2023-04-06T04:24:11;20.13;;;11.27;;
26277;SDS011;14000;52.056;8.510;2023-04-06T04:26:38;20.10;;;11.60;;
26277;SDS011;14000;52.056;8.510;2023-04-06T04:29:04;24.03;;;11.83;;
26277;SDS011;14000;52.056;8.510;2023-04-06T04:31:30;21.23;;;11.47;;
26277;SDS011;14000;52.056;8.510;2023-04-06T04:33:59;19.53;;;10.77;;
26277;SDS011;14000;52.056;8.510;2023-04-06T04:36:25;25.20;;;12.10;;
26277;SDS011;14000;52.056;8.510;2023-04-06T04:38:51;21.63;;;11.37;;
26277;SDS011;14000;52.056;8.510;2023-04-06T04:41:17;23.50;;;10.90;;
26277;SDS011;14000;52.056;8.510;2023-04-06T04:43:43;22.07;;;11.73;;
26277;SDS011;14000;52.056;8.510;2023-04-06T04:46:09;22.60;;;11.57;;
26277;SDS011;14000;52.056;8.510;2023-04-06T04:48:34;20.93;;;10.53;;
26277;SDS011;14000;52.056;8.510;2023-04-06T04:51:00;22.53;;;11.33;;
26277;SDS011;14000;52.056;8.510;2023-04-06T04:53:26;22.90;;;10.23;;
26277;SDS011;14000;52.056;8.510;2023-04-06T04:55:52;24.53;;;10.53;;
26277;SDS011;14000;52.056;8.510;2023-04-06T04:58:17;20.43;;;9.90;;
26277;SDS011;14000;52.056;8.510;2023-04-06T05:00:44;19.07;;;10.47;;
26277;SDS011;14000;52.056;8.510;2023-04-06T05:03:14;20.77;;;11.53;;
26277;SDS011;14000;52.056;8.510;2023-04-06T05:05:45;21.57;;;12.33;;
26277;SDS011;14000;52.056;8.510;2023-04-06T05:08:11;24.30;;;12.40;;
26277;SDS011;14000;52.056;8.510;2023-04-06T05:10:37;21.50;;;10.67;;
26277;SDS011;14000;52.056;8.510;2023-04-06T05:13:02;21.43;;;10.73;;
26277;SDS011;14000;52.056;8.510;2023-04-06T05:15:28;20.27;;;11.07;;
26277;SDS011;14000;52.056;8.510;2023-04-06T05:17:54;24.90;;;11.60;;
26277;SDS011;14000;52.056;8.510;2023-04-06T05:20:20;19.10;;;10.27;;
26277;SDS011;14000;52.056;8.510;2023-04-06T05:22:46;21.50;;;11.90;;
26277;SDS011;14000;52.056;8.510;2023-04-06T05:25:12;23.30;;;12.53;;
26277;SDS011;14000;52.056;8.510;2023-04-06T05:27:38;21.83;;;12.00;;
26277;SDS011;14000;52.056;8.510;2023-04-06T05:30:05;25.07;;;12.67;;
26277;SDS011;14000;52.056;8.510;2023-04-06T05:32:31;23.17;;;11.23;;
26277;SDS011;14000;52.056;8.510;2023-04-06T05:34:57;22.67;;;11.97;;
26277;SDS011;14000;52.056;8.510;2023-04-06T05:37:22;22.90;;;11.63;;
26277;SDS011;14000;52.056;8.510;2023-04-06T05:39:48;20.87;;;11.53;;
26277;SDS011;14000;52.056;8.510;2023-04-06T05:42:13;19.93;;;10.50;;
26277;SDS011;14000;52.056;8.510;2023-04-06T05:44:40;19.40;;;9.60;;
26277;SDS011;14000;52.056;8.510;2023-04-06T05:47:05;19.83;;;10.43;;
26277;SDS011;14000;52.056;8.510;2023-04-06T05:49:31;21.57;;;10.80;;
26277;SDS011;14000;52.056;8.510;2023-04-06T05:51:57;23.13;;;10.83;;
26277;SDS011;14000;52.056;8.510;2023-04-06T05:54:22;21.97;;;10.63;;
26277;SDS011;14000;52.056;8.510;2023-04-06T05:56:48;20.90;;;11.23;;
26277;SDS011;14000;52.056;8.510;2023-04-06T05:59:13;22.03;;;10.90;;
26277;SDS011;14000;52.056;8.510;2023-04-06T06:01:40;20.27;;;11.37;;
26277;SDS011;14000;52.056;8.510;2023-04-06T06:04:05;27.87;;;13.80;;
26277;SDS011;14000;52.056;8.510;2023-04-06T06:06:31;23.00;;;12.60;;
26277;SDS011;14000;52.056;8.510;2023-04-06T06:08:57;26.57;;;12.63;;
26277;SDS011;14000;52.056;8.510;2023-04-06T06:11:26;25.30;;;13.10;;
26277;SDS011;14000;52.056;8.510;2023-04-06T06:13:52;23.43;;;13.80;;
26277;SDS011;14000;52.056;8.510;2023-04-06T06:16:18;22.80;;;12.57;;
26277;SDS011;14000;52.056;8.510;2023-04-06T06:18:44;26.23;;;13.97;;
26277;SDS011;14000;52.056;8.510;2023-04-06T06:21:10;25.53;;;13.70;;
26277;SDS011;14000;52.056;8.510;2023-04-06T06:23:39;26.23;;;14.47;;
26277;SDS011;14000;52.056;8.510;2023-04-06T06:26:07;24.33;;;14.57;;
26277;SDS011;14000;52.056;8.510;2023-04-06T06:28:32;26.07;;;14.40;;
26277;SDS011;14000;52.056;8.510;2023-04-06T06:30:58;25.10;;;14.13;;
26277;SDS011;14000;52.056;8.510;2023-04-06T06:33:24;24.57;;;14.40;;
26277;SDS011;14000;52.056;8.510;2023-04-06T06:35:51;24.87;;;14.67;;
26277;SDS011;14000;52.056;8.510;2023-04-06T06:38:17;37.00;;;20.00;;
26277;SDS011;14000;52.056;8.510;2023-04-06T06:40:43;36.33;;;20.87;;
26277;SDS011;14000;52.056;8.510;2023-04-06T06:43:09;29.33;;;16.40;;
26277;SDS011;14000;52.056;8.510;2023-04-06T06:45:35;26.87;;;16.37;;
26277;SDS011;14000;52.056;8.510;2023-04-06T06:48:01;24.57;;;13.97;;
26277;SDS011;14000;52.056;8.510;2023-04-06T06:50:26;30.77;;;16.37;;
26277;SDS011;14000;52.056;8.510;2023-04-06T06:52:52;38.67;;;19.57;;
26277;SDS011;14000;52.056;8.510;2023-04-06T06:55:17;29.60;;;17.67;;
26277;SDS011;14000;52.056;8.510;2023-04-06T06:57:44;29.50;;;15.03;;
26277;SDS011;14000;52.056;8.510;2023-04-06T07:00:11;23.00;;;13.77;;
26277;SDS011;14000;52.056;8.510;2023-04-06T07:02:38;28.80;;;13.40;;
26277;SDS011;14000;52.056;8.510;2023-04-06T07:05:04;21.90;;;13.27;;
26277;SDS011;14000;52.056;8.510;2023-04-06T07:07:31;22.17;;;12.43;;
26277;SDS011;14000;52.056;8.510;2023-04-06T07:09:58;21.80;;;12.57;;
26277;SDS011;14000;52.056;8.510;2023-04-06T07:12:24;21.07;;;12.37;;
26277;SDS011;14000;52.056;8.510;2023-04-06T07:14:50;21.67;;;12.53;;
26277;SDS011;14000;52.056;8.510;2023-04-06T07:17:15;21.50;;;12.37;;
26277;SDS011;14000;52.056;8.510;2023-04-06T07:19:41;28.03;;;16.13;;
26277;SDS011;14000;52.056;8.510;2023-04-06T07:22:07;28.53;;;15.37;;
26277;SDS011;14000;52.056;8.510;2023-04-06T07:24:32;24.40;;;12.87;;
26277;SDS011;14000;52.056;8.510;2023-04-06T07:26:58;23.43;;;11.97;;
26277;SDS011;14000;52.056;8.510;2023-04-06T07:29:25;21.60;;;11.20;;
26277;SDS011;14000;52.056;8.510;2023-04-06T07:31:51;23.53;;;11.57;;
26277;SDS011;14000;52.056;8.510;2023-04-06T07:34:17;19.03;;;10.40;;
26277;SDS011;14000;52.056;8.510;2023-04-06T07:36:43;21.63;;;11.00;;
26277;SDS011;14000;52.056;8.510;2023-04-06T07:39:09;18.00;;;9.60;;
26277;SDS011;14000;52.056;8.510;2023-04-06T07:41:35;20.50;;;10.43;;
26277;SDS011;14000;52.056;8.510;2023-04-06T07:44:01;20.03;;;10.73;;
26277;SDS011;14000;52.056;8.510;2023-04-06T07:46:27;22.60;;;10.27;;
26277;SDS011;14000;52.056;8.510;2023-04-06T07:48:53;19.07;;;9.97;;
26277;SDS011;14000;52.056;8.510;2023-04-06T07:51:18;18.63;;;10.07;;
26277;SDS011;14000;52.056;8.510;2023-04-06T07:53:44;24.30;;;10.10;;
26277;SDS011;14000;52.056;8.510;2023-04-06T07:56:10;22.17;;;10.37;;
26277;SDS011;14000;52.056;8.510;2023-04-06T07:58:37;23.13;;;13.30;;
26277;SDS011;14000;52.056;8.510;2023-04-06T08:01:03;22.67;;;11.70;;
26277;SDS011;14000;52.056;8.510;2023-04-06T08:03:29;18.17;;;9.67;;
26277;SDS011;14000;52.056;8.510;2023-04-06T08:05:54;18.57;;;9.30;;
26277;SDS011;14000;52.056;8.510;2023-04-06T08:08:20;16.10;;;8.93;;
26277;SDS011;14000;52.056;8.510;2023-04-06T08:10:47;22.70;;;9.30;;
26277;SDS011;14000;52.056;8.510;2023-04-06T08:13:13;19.90;;;9.00;;
26277;SDS011;14000;52.056;8.510;2023-04-06T08:15:40;16.90;;;9.53;;
26277;SDS011;14000;52.056;8.510;2023-04-06T08:18:05;18.37;;;9.47;;
26277;SDS011;14000;52.056;8.510;2023-04-06T08:20:31;17.43;;;9.07;;
26277;SDS011;14000;52.056;8.510;2023-04-06T08:22:57;19.90;;;9.30;;
26277;SDS011;14000;52.056;8.510;2023-04-06T08:25:23;17.17;;;9.07;;
26277;SDS011;14000;52.056;8.510;2023-04-06T08:27:48;20.60;;;9.30;;
26277;SDS011;14000;52.056;8.510;2023-04-06T08:30:14;22.47;;;10.00;;
26277;SDS011;14000;52.056;8.510;2023-04-06T08:32:40;17.53;;;8.70;;
26277;SDS011;14000;52.056;8.510;2023-04-06T08:35:07;16.33;;;8.60;;
26277;SDS011;14000;52.056;8.510;2023-04-06T08:37:33;17.13;;;8.73;;
26277;SDS011;14000;52.056;8.510;2023-04-06T08:39:58;17.60;;;9.20;;
26277;SDS011;14000;52.056;8.510;2023-04-06T08:42:25;16.13;;;8.37;;
26277;SDS011;14000;52.056;8.510;2023-04-06T08:44:51;19.90;;;8.70;;
26277;SDS011;14000;52.056;8.510;2023-04-06T08:47:18;17.83;;;8.33;;
26277;SDS011;14000;52.056;8.510;2023-04-06T08:49:44;18.30;;;9.07;;
26277;SDS011;14000;52.056;8.510;2023-04-06T08:52:11;19.30;;;8.50;;
26277;SDS011;14000;52.056;8.510;2023-04-06T08:54:37;15.97;;;7.90;;
26277;SDS011;14000;52.056;8.510;2023-04-06T08:57:04;18.20;;;8.03;;
26277;SDS011;14000;52.056;8.510;2023-04-06T08:59:31;16.73;;;7.60;;
26277;SDS011;14000;52.056;8.510;2023-04-06T09:01:57;18.33;;;7.60;;
26277;SDS011;14000;52.056;8.510;2023-04-06T09:04:24;17.30;;;7.63;;
26277;SDS011;14000;52.056;8.510;2023-04-06T09:06:51;14.47;;;7.37;;
26277;SDS011;14000;52.056;8.510;2023-04-06T09:09:17;14.30;;;7.23;;
26277;SDS011;14000;52.056;8.510;2023-04-06T09:11:46;17.30;;;7.63;;
26277;SDS011;14000;52.056;8.510;2023-04-06T09:14:14;16.53;;;8.20;;
26277;SDS011;14000;52.056;8.510;2023-04-06T09:16:41;20.57;;;8.83;;
26277;SDS011;14000;52.056;8.510;2023-04-06T09:19:08;19.10;;;8.80;;
26277;SDS011;14000;52.056;8.510;2023-04-06T09:21:34;16.17;;;8.23;;
26277;SDS011;14000;52.056;8.510;2023-04-06T09:24:03;17.30;;;8.30;;
26277;SDS011;14000;52.056;8.510;2023-04-06T09:26:30;16.93;;;8.73;;
26277;SDS011;14000;52.056;8.510;2023-04-06T09:28:58;15.90;;;8.10;;
26277;SDS011;14000;52.056;8.510;2023-04-06T09:31:29;16.30;;;8.23;;
26277;SDS011;14000;52.056;8.510;2023-04-06T09:33:58;22.70;;;8.70;;
26277;SDS011;14000;52.056;8.510;2023-04-06T09:36:35;15.93;;;7.87;;
26277;SDS011;14000;52.056;8.510;2023-04-06T09:39:05;17.50;;;8.20;;
26277;SDS011;14000;52.056;8.510;2023-04-06T09:41:31;18.50;;;9.13;;
26277;SDS011;14000;52.056;8.510;2023-04-06T09:44:11;17.90;;;8.57;;
26277;SDS011;14000;52.056;8.510;2023-04-06T09:46:38;19.10;;;8.73;;
26277;SDS011;14000;52.056;8.510;2023-04-06T09:49:05;17.23;;;8.53;;
26277;SDS011;14000;52.056;8.510;2023-04-06T09:51:49;18.83;;;8.37;;
26277;SDS011;14000;52.056;8.510;2023-04-06T09:54:22;18.40;;;8.73;;
26277;SDS011;14000;52.056;8.510;2023-04-06T09:56:53;18.00;;;8.97;;
26277;SDS011;14000;52.056;8.510;2023-04-06T10:05:55;22.37;;;10.00;;
26277;SDS011;14000;52.056;8.510;2023-04-06T10:08:09;18.10;;;9.17;;
26277;SDS011;14000;52.056;8.510;2023-04-06T10:10:36;19.80;;;9.47;;
26277;SDS011;14000;52.056;8.510;2023-04-06T10:13:03;18.97;;;9.33;;
26277;SDS011;14000;52.056;8.510;2023-04-06T10:15:30;17.03;;;9.43;;
26277;SDS011;14000;52.056;8.510;2023-04-06T10:17:56;18.70;;;9.23;;
26277;SDS011;14000;52.056;8.510;2023-04-06T10:23:26;18.83;;;9.70;;
26277;SDS011;14000;52.056;8.510;2023-04-06T10:25:58;18.03;;;9.40;;
26277;SDS011;14000;52.056;8.510;2023-04-06T10:28:24;18.23;;;10.00;;
26277;SDS011;14000;52.056;8.510;2023-04-06T10:30:57;17.90;;;9.07;;
26277;SDS011;14000;52.056;8.510;2023-04-06T10:33:26;18.87;;;10.20;;
26277;SDS011;14000;52.056;8.510;2023-04-06T10:35:52;18.13;;;9.90;;
26277;SDS011;14000;52.056;8.510;2023-04-06T10:38:20;26.53;;;11.10;;
26277;SDS011;14000;52.056;8.510;2023-04-06T10:40:48;19.10;;;9.67;;
26277;SDS011;14000;52.056;8.510;2023-04-06T10:43:23;18.43;;;9.63;;
26277;SDS011;14000;52.056;8.510;2023-04-06T10:45:55;19.07;;;9.57;;
26277;SDS011;14000;52.056;8.510;2023-04-06T10:48:22;18.43;;;9.40;;
26277;SDS011;14000;52.056;8.510;2023-04-06T10:50:49;18.63;;;10.17;;
26277;SDS011;14000;52.056;8.510;2023-04-06T10:53:23;18.23;;;9.87;;
26277;SDS011;14000;52.056;8.510;2023-04-06T10:55:54;17.80;;;9.47;;
26277;SDS011;14000;52.056;8.510;2023-04-06T10:58:24;19.20;;;9.93;;
26277;SDS011;14000;52.056;8.510;2023-04-06T11:00:51;18.50;;;10.10;;
26277;SDS011;14000;52.056;8.510;2023-04-06T11:03:17;17.77;;;9.53;;
26277;SDS011;14000;52.056;8.510;2023-04-06T11:05:44;20.80;;;10.90;;
26277;SDS011;14000;52.056;8.510;2023-04-06T11:08:10;22.40;;;10.43;;
26277;SDS011;14000;52.056;8.510;2023-04-06T11:13:53;19.73;;;10.77;;
26277;SDS011;14000;52.056;8.510;2023-04-06T11:16:27;22.70;;;10.63;;
26277;SDS011;14000;52.056;8.510;2023-04-06T11:21:38;18.30;;;10.20;;
26277;SDS011;14000;52.056;8.510;2023-04-06T11:29:23;17.93;;;10.27;;
26277;SDS011;14000;52.056;8.510;2023-04-06T11:31:59;18.27;;;9.57;;
26277;SDS011;14000;52.056;8.510;2023-04-06T11:34:30;18.30;;;10.10;;
26277;SDS011;14000;52.056;8.510;2023-04-06T11:36:59;16.83;;;9.50;;
26277;SDS011;14000;52.056;8.510;2023-04-06T11:39:27;16.70;;;9.50;;
26277;SDS011;14000;52.056;8.510;2023-04-06T11:41:57;18.73;;;10.43;;
26277;SDS011;14000;52.056;8.510;2023-04-06T11:47:01;18.07;;;11.33;;
26277;SDS011;14000;52.056;8.510;2023-04-06T11:49:28;19.13;;;10.93;;
26277;SDS011;14000;52.056;8.510;2023-04-06T11:51:55;16.40;;;10.03;;
26277;SDS011;14000;52.056;8.510;2023-04-06T11:54:37;17.80;;;10.40;;
26277;SDS011;14000;52.056;8.510;2023-04-06T11:57:03;16.60;;;9.07;;
26277;SDS011;14000;52.056;8.510;2023-04-06T11:59:30;16.83;;;11.13;;
26277;SDS011;14000;52.056;8.510;2023-04-06T12:01:59;18.00;;;11.07;;
26277;SDS011;14000;52.056;8.510;2023-04-06T12:04:26;18.10;;;10.60;;
26277;SDS011;14000;52.056;8.510;2023-04-06T12:06:52;19.07;;;11.00;;
26277;SDS011;14000;52.056;8.510;2023-04-06T12:09:18;17.73;;;10.37;;
26277;SDS011;14000;52.056;8.510;2023-04-06T12:11:44;19.00;;;11.00;;
26277;SDS011;14000;52.056;8.510;2023-04-06T12:14:10;19.87;;;11.60;;
26277;SDS011;14000;52.056;8.510;2023-04-06T12:16:36;18.90;;;11.43;;
26277;SDS011;14000;52.056;8.510;2023-04-06T12:19:02;20.47;;;11.47;;
26277;SDS011;14000;52.056;8.510;2023-04-06T12:21:28;17.90;;;10.80;;
26277;SDS011;14000;52.056;8.510;2023-04-06T12:23:56;18.23;;;10.50;;
26277;SDS011;14000;52.056;8.510;2023-04-06T12:26:25;20.87;;;10.90;;
26277;SDS011;14000;52.056;8.510;2023-04-06T12:28:52;26.70;;;11.50;;
26277;SDS011;14000;52.056;8.510;2023-04-06T12:31:19;18.17;;;10.37;;
26277;SDS011;14000;52.056;8.510;2023-04-06T12:33:46;18.90;;;10.07;;
26277;SDS011;14000;52.056;8.510;2023-04-06T12:36:13;15.40;;;8.77;;
26277;SDS011;14000;52.056;8.510;2023-04-06T12:38:40;18.00;;;9.07;;
26277;SDS011;14000;52.056;8.510;2023-04-06T12:41:07;15.60;;;8.10;;
26277;SDS011;14000;52.056;8.510;2023-04-06T12:43:32;18.47;;;8.87;;
26277;SDS011;14000;52.056;8.510;2023-04-06T12:45:58;17.27;;;8.97;;
26277;SDS011;14000;52.056;8.510;2023-04-06T12:48:27;18.30;;;9.30;;
26277;SDS011;14000;52.056;8.510;2023-04-06T12:50:57;19.27;;;9.13;;
26277;SDS011;14000;52.056;8.510;2023-04-06T12:53:23;18.50;;;9.80;;
26277;SDS011;14000;52.056;8.510;2023-04-06T12:55:50;18.27;;;9.23;;
26277;SDS011;14000;52.056;8.510;2023-04-06T12:58:16;16.53;;;7.73;;
26277;SDS011;14000;52.056;8.510;2023-04-06T13:00:43;17.07;;;8.23;;
26277;SDS011;14000;52.056;8.510;2023-04-06T13:03:08;19.50;;;9.40;;
26277;SDS011;14000;52.056;8.510;2023-04-06T13:05:34;16.77;;;8.97;;
26277;SDS011;14000;52.056;8.510;2023-04-06T13:08:00;16.77;;;8.77;;
26277;SDS011;14000;52.056;8.510;2023-04-06T13:10:26;18.43;;;8.57;;
26277;SDS011;14000;52.056;8.510;2023-04-06T13:12:52;17.60;;;8.90;;
26277;SDS011;14000;52.056;8.510;2023-04-06T13:15:17;17.40;;;9.27;;
26277;SDS011;14000;52.056;8.510;2023-04-06T13:17:43;18.53;;;9.40;;
26277;SDS011;14000;52.056;8.510;2023-04-06T13:20:09;18.53;;;9.43;;
26277;SDS011;14000;52.056;8.510;2023-04-06T13:22:35;18.93;;;9.33;;
26277;SDS011;14000;52.056;8.510;2023-04-06T13:25:01;18.53;;;9.43;;
26277;SDS011;14000;52.056;8.510;2023-04-06T13:27:26;17.03;;;8.93;;
26277;SDS011;14000;52.056;8.510;2023-04-06T13:29:52;17.43;;;8.47;;
26277;SDS011;14000;52.056;8.510;2023-04-06T13:32:19;16.97;;;9.07;;
26277;SDS011;14000;52.056;8.510;2023-04-06T13:34:45;16.83;;;9.10;;
26277;SDS011;14000;52.056;8.510;2023-04-06T13:37:13;16.40;;;8.90;;
26277;SDS011;14000;52.056;8.510;2023-04-06T13:39:40;17.97;;;9.03;;
26277;SDS011;14000;52.056;8.510;2023-04-06T13:42:06;20.43;;;10.03;;
26277;SDS011;14000;52.056;8.510;2023-04-06T13:44:32;18.27;;;9.60;;
26277;SDS011;14000;52.056;8.510;2023-04-06T13:46:57;18.27;;;9.70;;
26277;SDS011;14000;52.056;8.510;2023-04-06T13:49:24;20.87;;;9.83;;
26277;SDS011;14000;52.056;8.510;2023-04-06T13:51:50;17.00;;;9.13;;
26277;SDS011;14000;52.056;8.510;2023-04-06T13:54:16;18.73;;;9.80;;
26277;SDS011;14000;52.056;8.510;2023-04-06T13:56:41;19.43;;;9.40;;
26277;SDS011;14000;52.056;8.510;2023-04-06T13:59:07;19.80;;;9.63;;
26277;SDS011;14000;52.056;8.510;2023-04-06T14:01:33;17.67;;;9.80;;
26277;SDS011;14000;52.056;8.510;2023-04-06T14:03:59;18.77;;;10.20;;
26277;SDS011;14000;52.056;8.510;2023-04-06T14:06:25;19.73;;;9.87;;
26277;SDS011;14000;52.056;8.510;2023-04-06T14:08:51;19.33;;;9.97;;
26277;SDS011;14000;52.056;8.510;2023-04-06T14:11:16;19.60;;;10.40;;
26277;SDS011;14000;52.056;8.510;2023-04-06T14:13:42;18.03;;;10.10;;
26277;SDS011;14000;52.056;8.510;2023-04-06T14:16:08;21.00;;;9.60;;
26277;SDS011;14000;52.056;8.510;2023-04-06T14:18:33;20.83;;;10.93;;
26277;SDS011;14000;52.056;8.510;2023-04-06T14:21:01;19.87;;;11.20;;
26277;SDS011;14000;52.056;8.510;2023-04-06T14:23:27;20.87;;;11.13;;
26277;SDS011;14000;52.056;8.510;2023-04-06T14:26:03;24.27;;;12.13;;
26277;SDS011;14000;52.056;8.510;2023-04-06T14:28:29;24.70;;;12.50;;
26277;SDS011;14000;52.056;8.510;2023-04-06T14:30:55;20.30;;;10.90;;
26277;SDS011;14000;52.056;8.510;2023-04-06T14:33:21;21.53;;;12.00;;
26277;SDS011;14000;52.056;8.510;2023-04-06T14:35:47;21.57;;;11.30;;
26277;SDS011;14000;52.056;8.510;2023-04-06T14:38:12;20.63;;;10.90;;
26277;SDS011;14000;52.056;8.510;2023-04-06T14:40:38;20.00;;;11.23;;
26277;SDS011;14000;52.056;8.510;2023-04-06T14:43:04;22.23;;;12.37;;
26277;SDS011;14000;52.056;8.510;2023-04-06T14:45:32;22.27;;;11.80;;